Terminal Aerodrome Forecast
Issued by NWS Cleveland, OH

Home | Current Version | Previous Version | Text Only | Print | Product List | Glossary Off
Versions: 1 2 3 4 5 6 7 8 9 10 11 12 13 14 15 16 17 18 19 20 21

091
FTUS41 KCLE 151139
TAFCAK
TAF
KCAK 151139Z 1512/1612 15007KT P6SM OVC080
     FM151500 15009KT P6SM VCSH OVC035
      TEMPO 1515/1518 5SM -SN
     FM151800 16010KT 4SM -SN OVC020
     FM152000 17009KT 1 1/2SM -SN OVC010
     FM160400 20008KT 2SM -SN BKN007
     FM160700 24007KT P6SM BKN007
     FM161000 25007KT P6SM BKN010=

USA.gov is the U.S. government's official web portal to all federal, state and local government web resources and services.